sensor_id;sensor_type;location;lat;lon;timestamp;P1;durP1;ratioP1;P2;durP2;ratioP2
55417;SDS011;41287;47.554;7.844;2023-06-14T00:00:51;4.55;;;2.80;;
55417;SDS011;41287;47.554;7.844;2023-06-14T00:03:29;6.53;;;3.05;;
55417;SDS011;41287;47.554;7.844;2023-06-14T00:05:56;7.80;;;3.00;;
55417;SDS011;41287;47.554;7.844;2023-06-14T00:08:22;6.93;;;3.45;;
55417;SDS011;41287;47.554;7.844;2023-06-14T00:10:49;5.45;;;3.22;;
55417;SDS011;41287;47.554;7.844;2023-06-14T00:13:15;5.20;;;2.67;;
55417;SDS011;41287;47.554;7.844;2023-06-14T00:15:40;6.15;;;3.17;;
55417;SDS011;41287;47.554;7.844;2023-06-14T00:18:05;6.07;;;3.17;;
55417;SDS011;41287;47.554;7.844;2023-06-14T00:20:31;6.00;;;3.45;;
55417;SDS011;41287;47.554;7.844;2023-06-14T00:23:00;6.88;;;3.78;;
55417;SDS011;41287;47.554;7.844;2023-06-14T00:25:26;7.57;;;3.20;;
55417;SDS011;41287;47.554;7.844;2023-06-14T00:27:53;5.63;;;2.95;;
55417;SDS011;41287;47.554;7.844;2023-06-14T00:30:22;6.45;;;2.97;;
55417;SDS011;41287;47.554;7.844;2023-06-14T00:32:47;6.30;;;3.08;;
55417;SDS011;41287;47.554;7.844;2023-06-14T00:35:13;7.88;;;3.28;;
55417;SDS011;41287;47.554;7.844;2023-06-14T00:37:38;5.35;;;2.90;;
55417;SDS011;41287;47.554;7.844;2023-06-14T00:40:04;8.18;;;3.20;;
55417;SDS011;41287;47.554;7.844;2023-06-14T00:42:30;7.93;;;3.00;;
55417;SDS011;41287;47.554;7.844;2023-06-14T00:44:56;5.13;;;2.60;;
55417;SDS011;41287;47.554;7.844;2023-06-14T00:47:23;4.68;;;2.70;;
55417;SDS011;41287;47.554;7.844;2023-06-14T00:49:50;6.22;;;2.97;;
55417;SDS011;41287;47.554;7.844;2023-06-14T00:52:18;5.68;;;2.92;;
55417;SDS011;41287;47.554;7.844;2023-06-14T00:54:44;7.43;;;2.67;;
55417;SDS011;41287;47.554;7.844;2023-06-14T00:57:10;8.85;;;2.70;;
55417;SDS011;41287;47.554;7.844;2023-06-14T00:59:46;6.72;;;3.30;;
55417;SDS011;41287;47.554;7.844;2023-06-14T01:02:13;5.95;;;2.97;;
55417;SDS011;41287;47.554;7.844;2023-06-14T01:04:43;6.30;;;3.10;;
55417;SDS011;41287;47.554;7.844;2023-06-14T01:12:54;7.07;;;2.85;;
55417;SDS011;41287;47.554;7.844;2023-06-14T01:15:31;7.25;;;3.13;;
55417;SDS011;41287;47.554;7.844;2023-06-14T01:17:57;7.70;;;3.20;;
55417;SDS011;41287;47.554;7.844;2023-06-14T01:20:29;6.68;;;3.10;;
55417;SDS011;41287;47.554;7.844;2023-06-14T01:22:55;5.40;;;2.65;;
55417;SDS011;41287;47.554;7.844;2023-06-14T01:25:21;4.50;;;3.05;;
55417;SDS011;41287;47.554;7.844;2023-06-14T01:27:48;5.47;;;3.25;;
55417;SDS011;41287;47.554;7.844;2023-06-14T01:30:20;5.13;;;2.92;;
55417;SDS011;41287;47.554;7.844;2023-06-14T01:32:47;7.72;;;3.65;;
55417;SDS011;41287;47.554;7.844;2023-06-14T01:35:15;6.72;;;3.15;;
55417;SDS011;41287;47.554;7.844;2023-06-14T01:37:41;4.88;;;2.95;;
55417;SDS011;41287;47.554;7.844;2023-06-14T01:40:07;7.30;;;3.22;;
55417;SDS011;41287;47.554;7.844;2023-06-14T01:42:35;7.43;;;3.22;;
55417;SDS011;41287;47.554;7.844;2023-06-14T01:45:03;6.35;;;3.10;;
55417;SDS011;41287;47.554;7.844;2023-06-14T01:47:30;11.15;;;3.80;;
55417;SDS011;41287;47.554;7.844;2023-06-14T01:49:57;6.05;;;3.00;;
55417;SDS011;41287;47.554;7.844;2023-06-14T01:52:22;6.15;;;3.25;;
55417;SDS011;41287;47.554;7.844;2023-06-14T01:54:49;8.02;;;3.42;;
55417;SDS011;41287;47.554;7.844;2023-06-14T01:57:15;5.30;;;3.05;;
55417;SDS011;41287;47.554;7.844;2023-06-14T01:59:40;5.13;;;3.40;;
55417;SDS011;41287;47.554;7.844;2023-06-14T02:02:05;7.65;;;3.05;;
55417;SDS011;41287;47.554;7.844;2023-06-14T02:04:31;6.00;;;3.28;;
55417;SDS011;41287;47.554;7.844;2023-06-14T02:07:00;6.50;;;3.03;;
55417;SDS011;41287;47.554;7.844;2023-06-14T02:09:25;8.60;;;4.28;;
55417;SDS011;41287;47.554;7.844;2023-06-14T02:11:51;7.57;;;3.60;;
55417;SDS011;41287;47.554;7.844;2023-06-14T02:14:16;8.20;;;3.58;;
55417;SDS011;41287;47.554;7.844;2023-06-14T02:16:42;6.57;;;3.33;;
55417;SDS011;41287;47.554;7.844;2023-06-14T02:19:16;8.75;;;3.65;;
55417;SDS011;41287;47.554;7.844;2023-06-14T02:21:42;6.05;;;3.47;;
55417;SDS011;41287;47.554;7.844;2023-06-14T02:24:08;6.50;;;3.58;;
55417;SDS011;41287;47.554;7.844;2023-06-14T02:26:33;7.53;;;3.55;;
55417;SDS011;41287;47.554;7.844;2023-06-14T02:28:59;5.85;;;3.20;;
55417;SDS011;41287;47.554;7.844;2023-06-14T02:31:26;8.93;;;3.65;;
55417;SDS011;41287;47.554;7.844;2023-06-14T02:33:52;6.25;;;3.33;;
55417;SDS011;41287;47.554;7.844;2023-06-14T02:36:17;5.65;;;3.03;;
55417;SDS011;41287;47.554;7.844;2023-06-14T02:38:43;4.80;;;3.00;;
55417;SDS011;41287;47.554;7.844;2023-06-14T02:41:08;8.52;;;3.75;;
55417;SDS011;41287;47.554;7.844;2023-06-14T02:43:33;6.38;;;3.45;;
55417;SDS011;41287;47.554;7.844;2023-06-14T02:45:59;6.43;;;3.00;;
55417;SDS011;41287;47.554;7.844;2023-06-14T02:48:29;5.65;;;3.58;;
55417;SDS011;41287;47.554;7.844;2023-06-14T02:50:55;5.45;;;3.42;;
55417;SDS011;41287;47.554;7.844;2023-06-14T02:53:21;5.13;;;3.28;;
55417;SDS011;41287;47.554;7.844;2023-06-14T02:55:46;6.00;;;3.15;;
55417;SDS011;41287;47.554;7.844;2023-06-14T02:58:13;6.75;;;3.30;;
55417;SDS011;41287;47.554;7.844;2023-06-14T03:00:39;5.65;;;3.22;;
55417;SDS011;41287;47.554;7.844;2023-06-14T03:03:05;5.03;;;3.00;;
55417;SDS011;41287;47.554;7.844;2023-06-14T03:05:38;7.60;;;3.35;;
55417;SDS011;41287;47.554;7.844;2023-06-14T03:08:05;7.97;;;3.47;;
55417;SDS011;41287;47.554;7.844;2023-06-14T03:10:33;6.55;;;2.95;;
55417;SDS011;41287;47.554;7.844;2023-06-14T03:13:00;7.43;;;3.45;;
55417;SDS011;41287;47.554;7.844;2023-06-14T03:15:26;5.35;;;2.92;;
55417;SDS011;41287;47.554;7.844;2023-06-14T03:17:52;7.22;;;3.17;;
55417;SDS011;41287;47.554;7.844;2023-06-14T03:20:18;5.43;;;2.85;;
55417;SDS011;41287;47.554;7.844;2023-06-14T03:22:44;4.78;;;2.67;;
55417;SDS011;41287;47.554;7.844;2023-06-14T03:25:11;5.10;;;3.25;;
55417;SDS011;41287;47.554;7.844;2023-06-14T03:27:36;4.30;;;2.42;;
55417;SDS011;41287;47.554;7.844;2023-06-14T03:30:07;4.82;;;2.88;;
55417;SDS011;41287;47.554;7.844;2023-06-14T03:32:33;5.55;;;2.72;;
55417;SDS011;41287;47.554;7.844;2023-06-14T03:34:58;7.43;;;3.50;;
55417;SDS011;41287;47.554;7.844;2023-06-14T03:37:23;12.52;;;3.47;;
55417;SDS011;41287;47.554;7.844;2023-06-14T03:39:49;5.82;;;3.28;;
55417;SDS011;41287;47.554;7.844;2023-06-14T03:42:14;7.22;;;3.40;;
55417;SDS011;41287;47.554;7.844;2023-06-14T03:44:39;6.32;;;3.03;;
55417;SDS011;41287;47.554;7.844;2023-06-14T03:47:05;6.90;;;2.90;;
55417;SDS011;41287;47.554;7.844;2023-06-14T03:49:30;7.38;;;3.08;;
55417;SDS011;41287;47.554;7.844;2023-06-14T03:51:56;4.15;;;2.95;;
55417;SDS011;41287;47.554;7.844;2023-06-14T03:54:21;5.70;;;3.05;;
55417;SDS011;41287;47.554;7.844;2023-06-14T03:56:47;6.70;;;3.08;;
55417;SDS011;41287;47.554;7.844;2023-06-14T03:59:14;5.75;;;2.78;;
55417;SDS011;41287;47.554;7.844;2023-06-14T04:01:40;4.45;;;2.88;;
55417;SDS011;41287;47.554;7.844;2023-06-14T04:04:11;4.25;;;2.40;;
55417;SDS011;41287;47.554;7.844;2023-06-14T04:06:36;5.00;;;3.13;;
55417;SDS011;41287;47.554;7.844;2023-06-14T04:09:02;4.90;;;2.80;;
55417;SDS011;41287;47.554;7.844;2023-06-14T04:11:32;7.35;;;2.83;;
55417;SDS011;41287;47.554;7.844;2023-06-14T04:13:58;6.97;;;3.10;;
55417;SDS011;41287;47.554;7.844;2023-06-14T04:16:23;5.05;;;3.05;;
55417;SDS011;41287;47.554;7.844;2023-06-14T04:18:49;5.63;;;3.30;;
55417;SDS011;41287;47.554;7.844;2023-06-14T04:21:17;5.22;;;3.00;;
55417;SDS011;41287;47.554;7.844;2023-06-14T04:23:42;4.78;;;2.70;;
55417;SDS011;41287;47.554;7.844;2023-06-14T04:26:08;6.05;;;3.28;;
55417;SDS011;41287;47.554;7.844;2023-06-14T04:28:35;5.78;;;3.42;;
55417;SDS011;41287;47.554;7.844;2023-06-14T04:31:06;5.72;;;2.88;;
55417;SDS011;41287;47.554;7.844;2023-06-14T04:33:33;7.00;;;3.45;;
55417;SDS011;41287;47.554;7.844;2023-06-14T04:36:12;5.80;;;3.00;;
55417;SDS011;41287;47.554;7.844;2023-06-14T04:38:38;6.70;;;3.63;;
55417;SDS011;41287;47.554;7.844;2023-06-14T04:41:04;6.43;;;3.42;;
55417;SDS011;41287;47.554;7.844;2023-06-14T04:43:29;7.70;;;3.38;;
55417;SDS011;41287;47.554;7.844;2023-06-14T04:45:56;7.22;;;3.28;;
55417;SDS011;41287;47.554;7.844;2023-06-14T04:48:22;7.03;;;3.63;;
55417;SDS011;41287;47.554;7.844;2023-06-14T04:50:47;8.15;;;3.30;;
55417;SDS011;41287;47.554;7.844;2023-06-14T04:53:17;6.70;;;3.63;;
55417;SDS011;41287;47.554;7.844;2023-06-14T04:55:46;7.18;;;3.40;;
55417;SDS011;41287;47.554;7.844;2023-06-14T04:58:11;8.65;;;3.13;;
55417;SDS011;41287;47.554;7.844;2023-06-14T05:00:39;9.02;;;3.38;;
55417;SDS011;41287;47.554;7.844;2023-06-14T05:03:04;10.68;;;3.65;;
55417;SDS011;41287;47.554;7.844;2023-06-14T05:05:31;6.00;;;3.40;;
55417;SDS011;41287;47.554;7.844;2023-06-14T05:07:57;8.02;;;3.60;;
55417;SDS011;41287;47.554;7.844;2023-06-14T05:10:22;6.68;;;3.45;;
55417;SDS011;41287;47.554;7.844;2023-06-14T05:12:48;6.68;;;3.92;;
55417;SDS011;41287;47.554;7.844;2023-06-14T05:15:14;8.05;;;4.07;;
55417;SDS011;41287;47.554;7.844;2023-06-14T05:17:39;7.22;;;3.35;;
55417;SDS011;41287;47.554;7.844;2023-06-14T05:20:06;8.23;;;3.67;;
55417;SDS011;41287;47.554;7.844;2023-06-14T05:22:32;9.82;;;4.90;;
55417;SDS011;41287;47.554;7.844;2023-06-14T05:24:57;10.38;;;4.90;;
55417;SDS011;41287;47.554;7.844;2023-06-14T05:27:22;9.95;;;4.38;;
55417;SDS011;41287;47.554;7.844;2023-06-14T05:29:49;7.82;;;4.40;;
55417;SDS011;41287;47.554;7.844;2023-06-14T05:32:15;7.55;;;4.20;;
55417;SDS011;41287;47.554;7.844;2023-06-14T05:34:40;8.57;;;4.68;;
55417;SDS011;41287;47.554;7.844;2023-06-14T05:37:06;7.53;;;4.43;;
55417;SDS011;41287;47.554;7.844;2023-06-14T05:39:31;10.93;;;5.22;;
55417;SDS011;41287;47.554;7.844;2023-06-14T05:41:57;9.95;;;4.93;;
55417;SDS011;41287;47.554;7.844;2023-06-14T05:44:23;11.60;;;5.22;;
55417;SDS011;41287;47.554;7.844;2023-06-14T05:46:48;11.60;;;5.63;;
55417;SDS011;41287;47.554;7.844;2023-06-14T05:49:13;12.25;;;5.05;;
55417;SDS011;41287;47.554;7.844;2023-06-14T05:51:38;10.25;;;4.80;;
55417;SDS011;41287;47.554;7.844;2023-06-14T05:54:07;8.43;;;4.95;;
55417;SDS011;41287;47.554;7.844;2023-06-14T05:56:33;7.95;;;4.90;;
55417;SDS011;41287;47.554;7.844;2023-06-14T05:58:58;11.88;;;5.18;;
55417;SDS011;41287;47.554;7.844;2023-06-14T06:01:23;9.52;;;5.13;;
55417;SDS011;41287;47.554;7.844;2023-06-14T06:03:51;7.57;;;4.47;;
55417;SDS011;41287;47.554;7.844;2023-06-14T06:06:16;10.57;;;4.90;;
55417;SDS011;41287;47.554;7.844;2023-06-14T06:08:42;7.80;;;4.18;;
55417;SDS011;41287;47.554;7.844;2023-06-14T06:11:07;10.48;;;5.03;;
55417;SDS011;41287;47.554;7.844;2023-06-14T06:13:33;10.13;;;4.55;;
55417;SDS011;41287;47.554;7.844;2023-06-14T06:15:59;10.45;;;5.00;;
55417;SDS011;41287;47.554;7.844;2023-06-14T06:18:25;8.27;;;4.30;;
55417;SDS011;41287;47.554;7.844;2023-06-14T06:20:50;9.00;;;4.30;;
55417;SDS011;41287;47.554;7.844;2023-06-14T06:23:17;10.05;;;4.40;;
55417;SDS011;41287;47.554;7.844;2023-06-14T06:25:43;9.75;;;4.80;;
55417;SDS011;41287;47.554;7.844;2023-06-14T06:28:08;8.82;;;4.93;;
55417;SDS011;41287;47.554;7.844;2023-06-14T06:30:36;8.98;;;4.72;;
55417;SDS011;41287;47.554;7.844;2023-06-14T06:33:01;9.52;;;4.38;;
55417;SDS011;41287;47.554;7.844;2023-06-14T06:35:27;11.40;;;4.60;;
55417;SDS011;41287;47.554;7.844;2023-06-14T06:37:52;8.75;;;4.53;;
55417;SDS011;41287;47.554;7.844;2023-06-14T06:40:18;10.57;;;4.55;;
55417;SDS011;41287;47.554;7.844;2023-06-14T06:42:43;7.70;;;4.43;;
55417;SDS011;41287;47.554;7.844;2023-06-14T06:45:08;9.68;;;4.47;;
55417;SDS011;41287;47.554;7.844;2023-06-14T06:47:34;8.00;;;4.22;;
55417;SDS011;41287;47.554;7.844;2023-06-14T06:50:00;9.15;;;4.50;;
55417;SDS011;41287;47.554;7.844;2023-06-14T06:52:25;9.18;;;4.28;;
55417;SDS011;41287;47.554;7.844;2023-06-14T06:54:51;7.72;;;4.45;;
55417;SDS011;41287;47.554;7.844;2023-06-14T06:57:19;6.70;;;3.90;;
55417;SDS011;41287;47.554;7.844;2023-06-14T06:59:45;8.60;;;4.18;;
55417;SDS011;41287;47.554;7.844;2023-06-14T07:02:15;7.70;;;4.40;;
55417;SDS011;41287;47.554;7.844;2023-06-14T07:04:41;10.23;;;4.13;;
55417;SDS011;41287;47.554;7.844;2023-06-14T07:07:06;7.25;;;4.07;;
55417;SDS011;41287;47.554;7.844;2023-06-14T07:09:31;8.75;;;4.72;;
55417;SDS011;41287;47.554;7.844;2023-06-14T07:11:57;9.98;;;4.13;;
55417;SDS011;41287;47.554;7.844;2023-06-14T07:14:24;7.38;;;4.30;;
55417;SDS011;41287;47.554;7.844;2023-06-14T07:16:49;7.57;;;4.60;;
55417;SDS011;41287;47.554;7.844;2023-06-14T07:19:15;8.10;;;4.53;;
55417;SDS011;41287;47.554;7.844;2023-06-14T07:21:40;8.65;;;4.38;;
55417;SDS011;41287;47.554;7.844;2023-06-14T07:24:06;9.05;;;4.85;;
55417;SDS011;41287;47.554;7.844;2023-06-14T07:26:32;9.73;;;4.13;;
55417;SDS011;41287;47.554;7.844;2023-06-14T07:28:58;7.78;;;3.63;;
55417;SDS011;41287;47.554;7.844;2023-06-14T07:31:23;8.07;;;3.95;;
55417;SDS011;41287;47.554;7.844;2023-06-14T07:33:50;10.52;;;4.43;;
55417;SDS011;41287;47.554;7.844;2023-06-14T07:36:15;8.88;;;4.05;;
55417;SDS011;41287;47.554;7.844;2023-06-14T07:38:45;8.05;;;3.92;;
55417;SDS011;41287;47.554;7.844;2023-06-14T07:41:11;9.15;;;4.18;;
55417;SDS011;41287;47.554;7.844;2023-06-14T07:43:36;8.48;;;3.95;;
55417;SDS011;41287;47.554;7.844;2023-06-14T07:46:01;10.48;;;3.88;;
55417;SDS011;41287;47.554;7.844;2023-06-14T07:48:27;14.63;;;4.57;;
55417;SDS011;41287;47.554;7.844;2023-06-14T07:50:54;10.50;;;4.82;;
55417;SDS011;41287;47.554;7.844;2023-06-14T07:53:20;6.88;;;3.65;;
55417;SDS011;41287;47.554;7.844;2023-06-14T07:55:45;12.25;;;4.07;;
55417;SDS011;41287;47.554;7.844;2023-06-14T07:58:12;13.98;;;4.30;;
55417;SDS011;41287;47.554;7.844;2023-06-14T08:00:37;11.32;;;4.72;;
55417;SDS011;41287;47.554;7.844;2023-06-14T08:03:03;12.13;;;4.35;;
55417;SDS011;41287;47.554;7.844;2023-06-14T08:05:29;14.30;;;4.35;;
55417;SDS011;41287;47.554;7.844;2023-06-14T08:07:54;12.05;;;4.10;;
55417;SDS011;41287;47.554;7.844;2023-06-14T08:10:20;10.90;;;4.32;;
55417;SDS011;41287;47.554;7.844;2023-06-14T08:12:46;17.40;;;4.57;;
55417;SDS011;41287;47.554;7.844;2023-06-14T08:15:19;16.50;;;4.95;;
55417;SDS011;41287;47.554;7.844;2023-06-14T08:17:44;14.70;;;4.50;;
55417;SDS011;41287;47.554;7.844;2023-06-14T08:20:10;15.52;;;5.15;;
55417;SDS011;41287;47.554;7.844;2023-06-14T08:22:36;9.77;;;4.28;;
55417;SDS011;41287;47.554;7.844;2023-06-14T08:25:02;18.00;;;4.10;;
55417;SDS011;41287;47.554;7.844;2023-06-14T08:27:29;10.02;;;4.78;;
55417;SDS011;41287;47.554;7.844;2023-06-14T08:29:54;12.73;;;4.55;;
55417;SDS011;41287;47.554;7.844;2023-06-14T08:32:20;10.70;;;3.72;;
55417;SDS011;41287;47.554;7.844;2023-06-14T08:34:45;9.18;;;3.80;;
55417;SDS011;41287;47.554;7.844;2023-06-14T08:37:11;7.50;;;3.40;;
55417;SDS011;41287;47.554;7.844;2023-06-14T08:39:36;12.45;;;3.58;;
55417;SDS011;41287;47.554;7.844;2023-06-14T08:42:02;5.72;;;3.38;;
55417;SDS011;41287;47.554;7.844;2023-06-14T08:44:29;8.07;;;3.72;;
55417;SDS011;41287;47.554;7.844;2023-06-14T08:46:56;7.15;;;3.38;;
55417;SDS011;41287;47.554;7.844;2023-06-14T08:49:24;6.75;;;3.67;;
55417;SDS011;41287;47.554;7.844;2023-06-14T08:51:53;7.38;;;3.45;;
55417;SDS011;41287;47.554;7.844;2023-06-14T08:54:22;8.52;;;3.53;;
55417;SDS011;41287;47.554;7.844;2023-06-14T08:56:49;9.07;;;3.20;;
55417;SDS011;41287;47.554;7.844;2023-06-14T08:59:16;6.35;;;3.25;;
55417;SDS011;41287;47.554;7.844;2023-06-14T09:01:43;7.13;;;3.72;;
55417;SDS011;41287;47.554;7.844;2023-06-14T09:04:10;6.78;;;3.30;;
55417;SDS011;41287;47.554;7.844;2023-06-14T09:06:35;10.30;;;3.78;;
55417;SDS011;41287;47.554;7.844;2023-06-14T09:09:01;5.55;;;3.47;;
55417;SDS011;41287;47.554;7.844;2023-06-14T09:11:29;7.28;;;3.40;;
55417;SDS011;41287;47.554;7.844;2023-06-14T09:13:55;7.40;;;3.28;;
55417;SDS011;41287;47.554;7.844;2023-06-14T09:16:22;8.35;;;3.13;;
55417;SDS011;41287;47.554;7.844;2023-06-14T09:18:47;9.55;;;3.42;;
55417;SDS011;41287;47.554;7.844;2023-06-14T09:21:13;6.40;;;3.65;;
55417;SDS011;41287;47.554;7.844;2023-06-14T09:23:42;7.82;;;3.22;;
55417;SDS011;41287;47.554;7.844;2023-06-14T09:26:09;4.38;;;2.83;;
55417;SDS011;41287;47.554;7.844;2023-06-14T09:31:10;8.45;;;2.97;;
55417;SDS011;41287;47.554;7.844;2023-06-14T09:33:36;7.18;;;3.17;;
55417;SDS011;41287;47.554;7.844;2023-06-14T09:36:01;5.88;;;3.05;;
55417;SDS011;41287;47.554;7.844;2023-06-14T09:38:26;4.68;;;2.90;;
55417;SDS011;41287;47.554;7.844;2023-06-14T09:40:52;6.97;;;3.10;;
55417;SDS011;41287;47.554;7.844;2023-06-14T09:43:17;6.43;;;2.60;;
55417;SDS011;41287;47.554;7.844;2023-06-14T09:45:44;8.63;;;3.22;;
55417;SDS011;41287;47.554;7.844;2023-06-14T09:48:13;7.50;;;3.38;;
55417;SDS011;41287;47.554;7.844;2023-06-14T09:50:43;6.53;;;2.95;;
55417;SDS011;41287;47.554;7.844;2023-06-14T09:53:11;6.05;;;3.40;;
55417;SDS011;41287;47.554;7.844;2023-06-14T09:55:40;8.50;;;3.00;;
55417;SDS011;41287;47.554;7.844;2023-06-14T09:58:07;4.93;;;3.03;;
55417;SDS011;41287;47.554;7.844;2023-06-14T10:00:35;9.40;;;3.60;;
55417;SDS011;41287;47.554;7.844;2023-06-14T10:03:12;9.10;;;3.22;;
55417;SDS011;41287;47.554;7.844;2023-06-14T10:05:39;5.60;;;2.92;;
55417;SDS011;41287;47.554;7.844;2023-06-14T10:08:08;6.00;;;3.05;;
55417;SDS011;41287;47.554;7.844;2023-06-14T10:10:35;7.53;;;3.60;;
55417;SDS011;41287;47.554;7.844;2023-06-14T10:13:03;6.03;;;3.10;;
55417;SDS011;41287;47.554;7.844;2023-06-14T10:21:41;6.85;;;2.85;;
55417;SDS011;41287;47.554;7.844;2023-06-14T10:24:15;7.88;;;3.55;;
55417;SDS011;41287;47.554;7.844;2023-06-14T10:26:53;6.35;;;3.17;;
55417;SDS011;41287;47.554;7.844;2023-06-14T10:29:19;6.60;;;3.15;;
55417;SDS011;41287;47.554;7.844;2023-06-14T10:31:46;5.00;;;2.92;;
55417;SDS011;41287;47.554;7.844;2023-06-14T10:34:23;6.50;;;3.25;;
55417;SDS011;41287;47.554;7.844;2023-06-14T10:39:49;6.78;;;3.42;;
55417;SDS011;41287;47.554;7.844;2023-06-14T10:42:15;4.50;;;2.70;;
55417;SDS011;41287;47.554;7.844;2023-06-14T10:44:54;6.03;;;3.20;;
55417;SDS011;41287;47.554;7.844;2023-06-14T10:47:30;4.63;;;2.75;;
55417;SDS011;41287;47.554;7.844;2023-06-14T10:52:33;5.38;;;3.00;;
55417;SDS011;41287;47.554;7.844;2023-06-14T10:55:09;6.38;;;3.35;;
55417;SDS011;41287;47.554;7.844;2023-06-14T10:57:48;5.35;;;3.15;;
55417;SDS011;41287;47.554;7.844;2023-06-14T11:00:21;5.95;;;3.65;;
55417;SDS011;41287;47.554;7.844;2023-06-14T11:11:09;7.43;;;3.53;;
55417;SDS011;41287;47.554;7.844;2023-06-14T11:13:36;5.90;;;3.30;;
55417;SDS011;41287;47.554;7.844;2023-06-14T11:16:03;5.00;;;3.20;;
55417;SDS011;41287;47.554;7.844;2023-06-14T11:18:38;8.32;;;3.20;;
55417;SDS011;41287;47.554;7.844;2023-06-14T11:21:06;6.72;;;2.95;;
55417;SDS011;41287;47.554;7.844;2023-06-14T11:23:31;5.72;;;3.25;;
55417;SDS011;41287;47.554;7.844;2023-06-14T11:25:57;6.13;;;3.20;;
55417;SDS011;41287;47.554;7.844;2023-06-14T11:28:22;5.30;;;2.97;;
55417;SDS011;41287;47.554;7.844;2023-06-14T11:30:49;6.03;;;3.60;;
55417;SDS011;41287;47.554;7.844;2023-06-14T11:33:24;9.30;;;3.40;;
55417;SDS011;41287;47.554;7.844;2023-06-14T11:35:50;6.72;;;3.38;;
55417;SDS011;41287;47.554;7.844;2023-06-14T11:38:16;5.82;;;3.10;;
55417;SDS011;41287;47.554;7.844;2023-06-14T11:40:43;6.20;;;3.20;;
55417;SDS011;41287;47.554;7.844;2023-06-14T11:43:09;8.73;;;3.38;;
55417;SDS011;41287;47.554;7.844;2023-06-14T11:45:34;4.93;;;3.00;;
55417;SDS011;41287;47.554;7.844;2023-06-14T11:48:00;5.65;;;3.58;;
55417;SDS011;41287;47.554;7.844;2023-06-14T11:50:26;7.40;;;3.53;;
55417;SDS011;41287;47.554;7.844;2023-06-14T11:52:53;6.75;;;3.47;;
55417;SDS011;41287;47.554;7.844;2023-06-14T11:55:20;6.93;;;3.40;;
55417;SDS011;41287;47.554;7.844;2023-06-14T11:57:46;5.95;;;2.83;;
55417;SDS011;41287;47.554;7.844;2023-06-14T12:00:12;7.15;;;3.38;;
55417;SDS011;41287;47.554;7.844;2023-06-14T12:02:38;10.45;;;3.40;;
55417;SDS011;41287;47.554;7.844;2023-06-14T12:05:05;11.40;;;3.70;;
55417;SDS011;41287;47.554;7.844;2023-06-14T12:07:34;6.32;;;2.95;;
55417;SDS011;41287;47.554;7.844;2023-06-14T12:12:27;5.32;;;3.15;;
55417;SDS011;41287;47.554;7.844;2023-06-14T12:14:54;7.60;;;3.55;;
55417;SDS011;41287;47.554;7.844;2023-06-14T12:17:21;8.00;;;3.05;;
55417;SDS011;41287;47.554;7.844;2023-06-14T12:19:46;6.10;;;3.30;;
55417;SDS011;41287;47.554;7.844;2023-06-14T12:22:14;6.57;;;3.28;;
55417;SDS011;41287;47.554;7.844;2023-06-14T12:24:42;5.97;;;2.95;;
55417;SDS011;41287;47.554;7.844;2023-06-14T12:27:08;5.93;;;3.55;;
55417;SDS011;41287;47.554;7.844;2023-06-14T12:29:34;6.53;;;3.83;;
55417;SDS011;41287;47.554;7.844;2023-06-14T12:32:00;6.70;;;3.60;;
55417;SDS011;41287;47.554;7.844;2023-06-14T12:34:30;6.78;;;3.30;;
55417;SDS011;41287;47.554;7.844;2023-06-14T12:36:56;6.30;;;3.05;;
55417;SDS011;41287;47.554;7.844;2023-06-14T12:39:23;7.30;;;3.47;;
55417;SDS011;41287;47.554;7.844;2023-06-14T12:41:49;7.40;;;3.15;;
55417;SDS011;41287;47.554;7.844;2023-06-14T12:44:19;5.93;;;3.05;;
55417;SDS011;41287;47.554;7.844;2023-06-14T12:46:45;5.78;;;3.65;;
55417;SDS011;41287;47.554;7.844;2023-06-14T12:49:12;5.60;;;3.38;;
55417;SDS011;41287;47.554;7.844;2023-06-14T12:51:38;4.05;;;2.67;;
55417;SDS011;41287;47.554;7.844;2023-06-14T12:54:04;4.88;;;3.05;;
55417;SDS011;41287;47.554;7.844;2023-06-14T12:56:30;4.95;;;3.22;;
55417;SDS011;41287;47.554;7.844;2023-06-14T12:58:55;7.30;;;2.78;;
55417;SDS011;41287;47.554;7.844;2023-06-14T13:01:20;4.35;;;3.05;;
55417;SDS011;41287;47.554;7.844;2023-06-14T13:03:46;6.55;;;2.88;;
55417;SDS011;41287;47.554;7.844;2023-06-14T13:06:12;6.07;;;3.08;;
55417;SDS011;41287;47.554;7.844;2023-06-14T13:08:37;7.20;;;2.92;;
55417;SDS011;41287;47.554;7.844;2023-06-14T13:11:03;5.45;;;3.22;;
55417;SDS011;41287;47.554;7.844;2023-06-14T13:13:28;5.25;;;2.65;;
55417;SDS011;41287;47.554;7.844;2023-06-14T13:15:53;6.10;;;3.15;;
55417;SDS011;41287;47.554;7.844;2023-06-14T13:18:19;8.43;;;3.38;;
55417;SDS011;41287;47.554;7.844;2023-06-14T13:20:50;9.52;;;3.55;;
55417;SDS011;41287;47.554;7.844;2023-06-14T13:23:16;6.20;;;3.40;;
55417;SDS011;41287;47.554;7.844;2023-06-14T13:25:41;10.25;;;3.47;;
55417;SDS011;41287;47.554;7.844;2023-06-14T13:28:07;7.05;;;3.47;;
55417;SDS011;41287;47.554;7.844;2023-06-14T13:30:32;7.97;;;3.50;;
55417;SDS011;41287;47.554;7.844;2023-06-14T13:32:58;7.90;;;3.55;;
55417;SDS011;41287;47.554;7.844;2023-06-14T13:35:26;8.98;;;3.85;;
55417;SDS011;41287;47.554;7.844;2023-06-14T13:37:51;7.97;;;3.65;;
55417;SDS011;41287;47.554;7.844;2023-06-14T13:40:17;8.80;;;3.35;;
55417;SDS011;41287;47.554;7.844;2023-06-14T13:42:45;6.35;;;3.40;;
55417;SDS011;41287;47.554;7.844;2023-06-14T13:45:11;7.70;;;3.55;;
55417;SDS011;41287;47.554;7.844;2023-06-14T13:47:37;12.13;;;3.65;;
55417;SDS011;41287;47.554;7.844;2023-06-14T13:50:03;7.13;;;3.20;;
55417;SDS011;41287;47.554;7.844;2023-06-14T13:52:29;9.05;;;3.30;;
55417;SDS011;41287;47.554;7.844;2023-06-14T13:54:54;5.63;;;2.92;;
55417;SDS011;41287;47.554;7.844;2023-06-14T13:57:20;7.03;;;3.40;;
55417;SDS011;41287;47.554;7.844;2023-06-14T13:59:45;5.18;;;3.08;;
55417;SDS011;41287;47.554;7.844;2023-06-14T14:02:13;8.40;;;3.45;;
55417;SDS011;41287;47.554;7.844;2023-06-14T14:04:39;8.55;;;4.10;;
55417;SDS011;41287;47.554;7.844;2023-06-14T14:07:05;6.38;;;3.45;;
55417;SDS011;41287;47.554;7.844;2023-06-14T14:09:32;6.65;;;3.55;;
55417;SDS011;41287;47.554;7.844;2023-06-14T14:11:58;8.05;;;3.92;;
55417;SDS011;41287;47.554;7.844;2023-06-14T14:14:23;8.20;;;4.00;;
55417;SDS011;41287;47.554;7.844;2023-06-14T14:16:49;5.38;;;3.38;;
55417;SDS011;41287;47.554;7.844;2023-06-14T14:19:16;5.93;;;3.38;;
55417;SDS011;41287;47.554;7.844;2023-06-14T14:21:43;6.30;;;3.38;;
55417;SDS011;41287;47.554;7.844;2023-06-14T14:24:11;7.32;;;3.95;;
55417;SDS011;41287;47.554;7.844;2023-06-14T14:26:36;7.25;;;3.70;;
55417;SDS011;41287;47.554;7.844;2023-06-14T14:29:02;5.88;;;3.55;;
55417;SDS011;41287;47.554;7.844;2023-06-14T14:31:29;5.53;;;3.65;;
55417;SDS011;41287;47.554;7.844;2023-06-14T14:33:55;10.30;;;4.18;;
55417;SDS011;41287;47.554;7.844;2023-06-14T14:36:20;9.60;;;4.50;;
55417;SDS011;41287;47.554;7.844;2023-06-14T14:38:46;7.78;;;4.10;;
55417;SDS011;41287;47.554;7.844;2023-06-14T14:41:12;12.18;;;3.83;;
55417;SDS011;41287;47.554;7.844;2023-06-14T14:43:38;10.68;;;3.90;;
55417;SDS011;41287;47.554;7.844;2023-06-14T14:46:03;8.75;;;4.07;;
55417;SDS011;41287;47.554;7.844;2023-06-14T14:48:32;10.02;;;3.95;;
55417;SDS011;41287;47.554;7.844;2023-06-14T14:50:57;8.25;;;3.67;;
55417;SDS011;41287;47.554;7.844;2023-06-14T14:53:23;8.88;;;3.80;;
55417;SDS011;41287;47.554;7.844;2023-06-14T14:55:48;11.60;;;4.05;;
55417;SDS011;41287;47.554;7.844;2023-06-14T14:58:14;7.60;;;4.72;;
55417;SDS011;41287;47.554;7.844;2023-06-14T15:00:44;8.52;;;3.90;;
55417;SDS011;41287;47.554;7.844;2023-06-14T15:03:10;8.65;;;3.90;;
55417;SDS011;41287;47.554;7.844;2023-06-14T15:05:36;5.97;;;3.80;;
55417;SDS011;41287;47.554;7.844;2023-06-14T15:08:02;10.10;;;4.22;;
55417;SDS011;41287;47.554;7.844;2023-06-14T15:10:28;7.68;;;3.88;;
55417;SDS011;41287;47.554;7.844;2023-06-14T15:12:55;7.05;;;3.70;;